This is the latest recevied weather packets stored in our database for station/object KC5CAM-13. If no packets are shown the sender has not sent any weather packets the latest 10 day(s).
| Time | Temp. | Humidity | Pressure | Rain* | Wind** | Luminosity | Snow |
|---|---|---|---|---|---|---|---|
| 1777837358 | 27.22° C | 35% | 1018.8 hPa | 0 mm | - | 722 W/m² | - |
| 1777837055 | 27.78° C | 37% | 1018.9 hPa | 0 mm | - | 723 W/m² | - |
| 1777836751 | 26.67° C | 36% | 1019.4 hPa | 0 mm | - | 699 W/m² | - |
| 1777836447 | 27.78° C | 39% | 1019.2 hPa | 0 mm | - | 750 W/m² | - |
| 1777836142 | 27.22° C | 39% | 1019.2 hPa | 0 mm | - | 752 W/m² | - |
| 1777835839 | 27.22° C | 38% | 1019.3 hPa | 0 mm | - | 661 W/m² | - |
| 1777835536 | 27.22° C | 38% | 1019.4 hPa | 0 mm | - | 756 W/m² | - |
| 1777835233 | 26.67° C | 41% | 1019.4 hPa | 0 mm | - | 747 W/m² | - |
| 1777834930 | 27.22° C | 42% | 1019.5 hPa | 0 mm | - | 759 W/m² | - |
| 1777834627 | 27.22° C | 43% | 1019.7 hPa | 0 mm | - | 758 W/m² | - |
| 1777834322 | 27.22° C | 41% | 1019.8 hPa | 0 mm | - | 769 W/m² | - |
| 1777834017 | 26.67° C | 43% | 1019.6 hPa | 0 mm | - | 399 W/m² | - |
| 1777833714 | 26.67° C | 43% | 1019.8 hPa | 0 mm | - | 764 W/m² | - |
| 1777833410 | 26.67° C | 43% | 1019.7 hPa | 0 mm | - | 772 W/m² | - |
| 1777833108 | 27.22° C | 39% | 1020.1 hPa | 0 mm | - | 777 W/m² | - |
| 1777832805 | 27.22° C | 42% | 1019.9 hPa | 0 mm | - | 769 W/m² | - |
| 1777832504 | 26.67° C | 39% | 1020 hPa | 0 mm | - | 767 W/m² | - |
| 1777832200 | 26.67° C | 39% | 1020.5 hPa | 0 mm | - | 752 W/m² | - |
| 1777831897 | 26.11° C | 42% | 1020.2 hPa | 0 mm | - | 748 W/m² | - |
| 1777831594 | 26.67° C | 43% | 1020.4 hPa | 0 mm | - | 753 W/m² | - |
| 1777831292 | 26.11° C | 45% | 1020.3 hPa | 0 mm | - | 734 W/m² | - |
| 1777830989 | 26.11° C | 45% | 1020.6 hPa | 0 mm | - | 727 W/m² | - |
| 1777830686 | 26.67° C | 45% | 1020.7 hPa | 0 mm | - | 707 W/m² | - |
| 1777830382 | 26.11° C | 46% | 1020.7 hPa | 0 mm | - | 679 W/m² | - |
| 1777830080 | 26.11° C | 43% | 1021 hPa | 0 mm | - | 657 W/m² | - |
* Rain latest hour (hover to see other rain measurements)
** Current wind speed in m/s (hover to see current wind gust speed)